Time;durP1;ratioP1;P1;durP2;ratioP2;P2;SDS_P1;SDS_P2;PMS_P1;PMS_P2;Temp;Humidity;BMP_temperature;BMP_pressure;BME280_temperature;BME280_humidity;BME280_pressure;Samples;Min_cycle;Max_cycle;Signal;HPM_P1;HPM_P2
2022/03/01 00:00:44;;;;;;;;;;;-4.20;99.90;;;;;;5074528;28;19973;-73
2022/03/01 00:03:10;;;;;;;;;;;-4.00;99.90;;;;;;5074098;28;19909;-73
2022/03/01 00:05:35;;;;;;;;;;;-4.00;99.90;;;;;;5074457;28;19915;-73
2022/03/01 00:08:01;;;;;;;;;;;-4.20;99.90;;;;;;5077355;28;20277;-73
2022/03/01 00:10:26;;;;;;;;;;;-4.40;99.90;;;;;;5077196;28;20369;-73
2022/03/01 00:12:52;;;;;;;;;;;-4.60;99.90;;;;;;5074199;28;20003;-73
2022/03/01 00:15:17;;;;;;;;;;;-4.50;99.90;;;;;;5074035;28;20038;-73
2022/03/01 00:17:43;;;;;;;;;;;-4.40;99.90;;;;;;5074100;28;19916;-73
2022/03/01 00:20:09;;;;;;;;;;;-4.60;99.90;;;;;;5072729;28;20277;-73
2022/03/01 00:22:34;;;;;;;;;;;-4.80;99.90;;;;;;5074021;28;19909;-73
2022/03/01 00:25:00;;;;;;;;;;;-4.70;99.90;;;;;;5073924;28;19943;-73
2022/03/01 00:27:26;;;;;;;;;;;-4.60;99.90;;;;;;5073800;28;19912;-73
2022/03/01 00:29:51;;;;;;;;;;;-4.60;99.90;;;;;;5074071;28;19916;-73
2022/03/01 00:32:17;;;;;;;;;;;-4.50;99.90;;;;;;5073771;28;19944;-73
2022/03/01 00:34:42;;;;;;;;;;;-4.40;99.90;;;;;;5073728;28;20292;-73
2022/03/01 00:37:08;;;;;;;;;;;-4.50;99.90;;;;;;5072277;28;19909;-73
2022/03/01 00:39:34;;;;;;;;;;;-4.60;99.90;;;;;;5073769;28;20003;-73
2022/03/01 00:41:59;;;;;;;;;;;-4.60;99.90;;;;;;5073802;28;19908;-73
2022/03/01 00:44:25;;;;;;;;;;;-4.80;99.90;;;;;;5073629;28;19908;-73
2022/03/01 00:46:50;;;;;;;;;;;-4.70;99.90;;;;;;5074017;28;19922;-73
2022/03/01 00:49:16;;;;;;;;;;;-4.70;99.90;;;;;;5073409;28;19996;-73
2022/03/01 00:51:41;;;;;;;;;;;-4.60;99.90;;;;;;5073511;28;19931;-73
2022/03/01 00:54:07;;;;;;;;;;;-4.70;99.90;;;;;;5072999;28;19954;-73
2022/03/01 00:56:34;;;;;;;;;;;-4.70;99.90;;;;;;5073643;28;19916;-73
2022/03/01 00:58:59;;;;;;;;;;;-4.50;99.90;;;;;;5073398;28;19908;-73
2022/03/01 01:01:25;;;;;;;;;;;-4.60;99.90;;;;;;5073184;28;19908;-73
2022/03/01 01:03:50;;;;;;;;;;;-4.70;99.90;;;;;;5073142;28;20154;-73
2022/03/01 01:06:16;;;;;;;;;;;-4.80;99.90;;;;;;5069774;28;19915;-73
2022/03/01 01:08:41;;;;;;;;;;;-4.90;99.90;;;;;;5076950;28;19915;-73
2022/03/01 01:11:07;;;;;;;;;;;-4.90;99.90;;;;;;5073287;28;20335;-73
2022/03/01 01:13:33;;;;;;;;;;;-5.00;99.90;;;;;;5072887;28;20340;-73
2022/03/01 01:15:58;;;;;;;;;;;-5.10;99.90;;;;;;5072948;28;19916;-73
2022/03/01 01:18:24;;;;;;;;;;;-5.20;99.90;;;;;;5072960;28;19908;-73
2022/03/01 01:20:49;;;;;;;;;;;-5.10;99.90;;;;;;5072991;28;19913;-73
2022/03/01 01:23:15;;;;;;;;;;;-5.10;99.90;;;;;;5072713;28;19951;-73
2022/03/01 01:25:40;;;;;;;;;;;-5.10;99.90;;;;;;5069291;28;19939;-73
2022/03/01 01:28:06;;;;;;;;;;;-5.00;99.90;;;;;;5072733;28;19916;-73
2022/03/01 01:30:33;;;;;;;;;;;-5.20;99.90;;;;;;5072702;28;19908;-73
2022/03/01 01:32:59;;;;;;;;;;;-5.30;99.90;;;;;;5072267;28;19908;-73
2022/03/01 01:35:26;;;;;;;;;;;-5.20;99.90;;;;;;5071055;28;20288;-73
2022/03/01 01:37:52;;;;;;;;;;;-5.20;99.90;;;;;;5071297;28;19908;-73
2022/03/01 01:40:19;;;;;;;;;;;-5.20;99.90;;;;;;5072647;28;20199;-73
2022/03/01 01:42:45;;;;;;;;;;;-5.30;99.90;;;;;;5072448;28;19908;-73
2022/03/01 01:45:11;;;;;;;;;;;-5.40;99.90;;;;;;5070973;28;20011;-73
2022/03/01 01:47:36;;;;;;;;;;;-5.40;99.90;;;;;;5072432;28;19991;-73
2022/03/01 01:50:03;;;;;;;;;;;-5.50;99.90;;;;;;5072758;28;20348;-73
2022/03/01 01:52:28;;;;;;;;;;;-5.40;99.90;;;;;;5072324;28;20351;-73
2022/03/01 01:54:54;;;;;;;;;;;-5.50;99.90;;;;;;5072191;28;20002;-73
2022/03/01 01:57:21;;;;;;;;;;;-5.50;99.90;;;;;;5072301;28;19948;-73
2022/03/01 01:59:47;;;;;;;;;;;-5.50;99.90;;;;;;5070871;28;19958;-73
2022/03/01 02:02:13;;;;;;;;;;;-5.40;99.90;;;;;;5072139;28;19908;-73
2022/03/01 02:04:40;;;;;;;;;;;-5.30;99.90;;;;;;5071984;28;19991;-74
2022/03/01 02:07:05;;;;;;;;;;;-5.30;99.90;;;;;;5076714;28;19954;-73
2022/03/01 02:09:31;;;;;;;;;;;-5.20;99.90;;;;;;5072134;28;19916;-73
2022/03/01 02:11:56;;;;;;;;;;;-5.20;99.90;;;;;;5071985;28;20274;-73
2022/03/01 02:14:22;;;;;;;;;;;-5.40;99.90;;;;;;5071662;28;19908;-74
2022/03/01 02:16:48;;;;;;;;;;;-5.60;99.90;;;;;;5071872;28;19985;-73
2022/03/01 02:19:14;;;;;;;;;;;-5.70;99.90;;;;;;5071932;28;19912;-73
2022/03/01 02:21:46;;;;;;;;;;;-5.70;99.90;;;;;;5070537;28;19916;-74
2022/03/01 02:24:13;;;;;;;;;;;-5.70;99.90;;;;;;5071034;28;20219;-73
2022/03/01 02:26:39;;;;;;;;;;;-5.80;99.90;;;;;;5071839;28;19909;-73
2022/03/01 02:29:04;;;;;;;;;;;-5.80;99.90;;;;;;5070524;28;20281;-73
2022/03/01 02:31:30;;;;;;;;;;;-5.80;99.90;;;;;;5071867;28;19909;-73
2022/03/01 02:33:57;;;;;;;;;;;-5.50;99.90;;;;;;5071549;28;19916;-73
2022/03/01 02:36:23;;;;;;;;;;;-5.50;99.90;;;;;;5071831;28;19908;-73
2022/03/01 02:38:48;;;;;;;;;;;-5.40;99.90;;;;;;5071498;28;20007;-73
2022/03/01 02:41:14;;;;;;;;;;;-5.50;99.90;;;;;;5071420;28;19912;-73
2022/03/01 02:43:39;;;;;;;;;;;-5.80;99.90;;;;;;5070726;28;20366;-73
2022/03/01 02:46:05;;;;;;;;;;;-6.00;99.90;;;;;;5071241;28;19908;-73
2022/03/01 02:48:30;;;;;;;;;;;-6.10;99.90;;;;;;5071652;28;20110;-73
2022/03/01 02:50:56;;;;;;;;;;;-6.20;99.90;;;;;;5071650;28;19908;-73
2022/03/01 02:53:22;;;;;;;;;;;-6.30;99.90;;;;;;5071272;28;19908;-73
2022/03/01 02:55:47;;;;;;;;;;;-6.20;99.90;;;;;;5071521;28;19915;-73
2022/03/01 02:58:13;;;;;;;;;;;-6.10;99.90;;;;;;5071625;28;20342;-73
2022/03/01 03:00:39;;;;;;;;;;;-6.00;99.90;;;;;;5071401;28;19912;-73
2022/03/01 03:03:04;;;;;;;;;;;-6.10;99.90;;;;;;5071436;28;20003;-74
2022/03/01 03:05:30;;;;;;;;;;;-6.00;99.90;;;;;;5069229;28;20012;-73
2022/03/01 03:07:55;;;;;;;;;;;-5.90;99.90;;;;;;5068602;28;19999;-73
2022/03/01 03:10:21;;;;;;;;;;;-5.80;99.90;;;;;;5071256;28;19919;-73
2022/03/01 03:12:46;;;;;;;;;;;-5.80;99.90;;;;;;5071293;28;19916;-73
2022/03/01 03:15:12;;;;;;;;;;;-5.70;99.90;;;;;;5071237;28;19936;-73
2022/03/01 03:17:37;;;;;;;;;;;-5.90;99.90;;;;;;5071342;28;19917;-73
2022/03/01 03:20:04;;;;;;;;;;;-6.20;99.90;;;;;;5071327;28;19921;-73
2022/03/01 03:22:29;;;;;;;;;;;-6.20;99.90;;;;;;5070806;28;19915;-74
2022/03/01 03:24:55;;;;;;;;;;;-6.20;99.90;;;;;;5065411;28;20277;-73
2022/03/01 03:27:21;;;;;;;;;;;-6.20;99.90;;;;;;5071194;28;19920;-73
2022/03/01 03:29:46;;;;;;;;;;;-6.30;99.90;;;;;;5071328;28;19908;-73
2022/03/01 03:32:12;;;;;;;;;;;-6.30;99.90;;;;;;5064721;28;20365;-73
2022/03/01 03:34:37;;;;;;;;;;;-6.40;99.90;;;;;;5070999;28;20377;-73
2022/03/01 03:37:03;;;;;;;;;;;-6.40;99.90;;;;;;5071306;28;19915;-73
2022/03/01 03:39:29;;;;;;;;;;;-6.30;99.90;;;;;;5070811;28;19912;-73
2022/03/01 03:41:54;;;;;;;;;;;-6.40;99.90;;;;;;5070834;28;19912;-73
2022/03/01 03:44:20;;;;;;;;;;;-6.40;99.90;;;;;;5071146;28;19951;-73
2022/03/01 03:46:45;;;;;;;;;;;-6.50;99.90;;;;;;5071139;28;19955;-73
2022/03/01 03:49:11;;;;;;;;;;;-6.60;99.90;;;;;;5071078;28;19916;-73
2022/03/01 03:51:36;;;;;;;;;;;-6.60;99.90;;;;;;5070978;28;19943;-73
2022/03/01 03:54:02;;;;;;;;;;;-6.50;99.90;;;;;;5071027;28;19909;-73
2022/03/01 03:56:28;;;;;;;;;;;-6.50;99.90;;;;;;5074584;28;19912;-73
2022/03/01 03:58:55;;;;;;;;;;;-6.50;99.90;;;;;;5074574;28;19908;-73
2022/03/01 04:01:21;;;;;;;;;;;-6.50;99.90;;;;;;5074504;28;20408;-73
2022/03/01 04:03:47;;;;;;;;;;;-6.60;99.90;;;;;;5077738;28;20369;-72
2022/03/01 04:06:12;;;;;;;;;;;-6.60;99.90;;;;;;5075045;28;19970;-73
2022/03/01 04:08:38;;;;;;;;;;;-6.70;99.90;;;;;;5077381;28;19970;-74
2022/03/01 04:11:05;;;;;;;;;;;-6.80;99.90;;;;;;5075603;28;19912;-73
2022/03/01 04:13:31;;;;;;;;;;;-6.80;99.90;;;;;;5074181;28;19912;-73
2022/03/01 04:15:56;;;;;;;;;;;-6.80;99.90;;;;;;5072926;28;19920;-73
2022/03/01 04:18:22;;;;;;;;;;;-6.70;99.90;;;;;;5074286;28;20459;-73
2022/03/01 04:20:47;;;;;;;;;;;-6.60;99.90;;;;;;5074128;28;19912;-73
2022/03/01 04:23:13;;;;;;;;;;;-6.60;99.90;;;;;;5073861;28;19954;-73
2022/03/01 04:25:39;;;;;;;;;;;-6.60;99.90;;;;;;5072825;28;19961;-73
2022/03/01 04:28:04;;;;;;;;;;;-6.70;99.90;;;;;;5072673;28;19909;-73
2022/03/01 04:30:29;;;;;;;;;;;-6.60;99.90;;;;;;5074236;28;19915;-73
2022/03/01 04:32:55;;;;;;;;;;;-6.60;99.90;;;;;;5074043;28;20334;-73
2022/03/01 04:35:20;;;;;;;;;;;-6.50;99.90;;;;;;5072460;28;19913;-73
2022/03/01 04:37:46;;;;;;;;;;;-6.60;99.90;;;;;;5074482;28;19909;-73
2022/03/01 04:40:13;;;;;;;;;;;-6.80;99.90;;;;;;5073753;28;20308;-73
2022/03/01 04:42:39;;;;;;;;;;;-7.00;99.90;;;;;;5073699;28;19916;-73
2022/03/01 04:45:06;;;;;;;;;;;-7.10;99.90;;;;;;5072696;28;19909;-73
2022/03/01 04:47:31;;;;;;;;;;;-7.10;99.90;;;;;;5067232;28;20376;-73
2022/03/01 04:49:58;;;;;;;;;;;-7.00;99.90;;;;;;5073716;28;19908;-73
2022/03/01 04:52:24;;;;;;;;;;;-6.80;99.90;;;;;;5073582;28;19909;-73
2022/03/01 04:54:50;;;;;;;;;;;-6.70;99.90;;;;;;5072296;28;19913;-73
2022/03/01 04:57:16;;;;;;;;;;;-6.70;99.90;;;;;;5073508;28;19908;-73
2022/03/01 04:59:41;;;;;;;;;;;-6.60;99.90;;;;;;5073452;28;19917;-73
2022/03/01 05:02:07;;;;;;;;;;;-6.60;99.90;;;;;;5073444;28;19954;-73
2022/03/01 05:04:32;;;;;;;;;;;-6.70;99.90;;;;;;5073204;28;19915;-73
2022/03/01 05:06:58;;;;;;;;;;;-7.00;99.90;;;;;;5081040;28;19908;-73
2022/03/01 05:09:24;;;;;;;;;;;-7.10;99.90;;;;;;5077625;28;19913;-73
2022/03/01 05:11:50;;;;;;;;;;;-7.20;99.90;;;;;;5073103;28;20358;-73
2022/03/01 05:14:16;;;;;;;;;;;-7.20;99.90;;;;;;5073003;28;19954;-73
2022/03/01 05:16:41;;;;;;;;;;;-7.30;99.90;;;;;;5073094;28;20292;-73
2022/03/01 05:19:09;;;;;;;;;;;-7.40;99.90;;;;;;5071749;28;20430;-73
2022/03/01 05:21:35;;;;;;;;;;;-7.30;99.90;;;;;;5073398;28;19931;-73
2022/03/01 05:24:01;;;;;;;;;;;-7.20;99.90;;;;;;5073044;28;19908;-73
2022/03/01 05:26:26;;;;;;;;;;;-7.20;99.90;;;;;;5066545;28;19916;-73
2022/03/01 05:28:52;;;;;;;;;;;-7.20;99.90;;;;;;5073103;28;19955;-73
2022/03/01 05:31:19;;;;;;;;;;;-7.20;99.90;;;;;;5073594;28;19958;-73
2022/03/01 05:33:45;;;;;;;;;;;-7.10;99.90;;;;;;5073018;28;19981;-73
2022/03/01 05:36:11;;;;;;;;;;;-7.30;99.90;;;;;;5068287;28;19916;-73
2022/03/01 05:38:36;;;;;;;;;;;-7.50;99.90;;;;;;5072771;28;19924;-73
2022/03/01 05:41:04;;;;;;;;;;;-7.50;99.90;;;;;;5071381;28;19909;-73
2022/03/01 05:43:30;;;;;;;;;;;-7.30;99.90;;;;;;5072922;28;19909;-73
2022/03/01 05:45:56;;;;;;;;;;;-7.40;99.90;;;;;;5072958;28;19956;-73
2022/03/01 05:48:21;;;;;;;;;;;-7.30;99.90;;;;;;5072850;28;20265;-73
2022/03/01 05:50:47;;;;;;;;;;;-7.10;99.90;;;;;;5072674;28;19912;-73
2022/03/01 05:53:12;;;;;;;;;;;-7.10;99.90;;;;;;5072671;28;19908;-73
2022/03/01 05:55:38;;;;;;;;;;;-7.20;99.90;;;;;;5072509;28;19909;-73
2022/03/01 05:58:03;;;;;;;;;;;-7.10;99.90;;;;;;5072521;28;19908;-73
2022/03/01 06:00:29;;;;;;;;;;;-7.30;99.90;;;;;;5071470;28;20011;-73
2022/03/01 06:02:54;;;;;;;;;;;-7.30;99.90;;;;;;5072174;28;19909;-73
2022/03/01 06:05:20;;;;;;;;;;;-7.40;99.90;;;;;;5071964;28;20345;-73
2022/03/01 06:07:45;;;;;;;;;;;-7.60;99.90;;;;;;5068949;28;20452;-73
2022/03/01 06:10:11;;;;;;;;;;;-7.60;99.90;;;;;;5072002;28;19969;-73
2022/03/01 06:12:37;;;;;;;;;;;-7.40;99.90;;;;;;5071949;28;20388;-73
2022/03/01 06:15:03;;;;;;;;;;;-7.30;99.90;;;;;;5071874;28;19996;-73
2022/03/01 06:17:29;;;;;;;;;;;-7.30;99.90;;;;;;5071868;28;19916;-73
2022/03/01 06:19:54;;;;;;;;;;;-7.20;99.90;;;;;;5071969;28;19915;-73
2022/03/01 06:22:20;;;;;;;;;;;-7.40;99.90;;;;;;5071849;28;19912;-73
2022/03/01 06:24:46;;;;;;;;;;;-7.10;99.90;;;;;;5072567;28;19908;-73
2022/03/01 06:27:12;;;;;;;;;;;-7.30;99.90;;;;;;5072670;28;19912;-73
2022/03/01 06:29:37;;;;;;;;;;;-7.40;99.90;;;;;;5072077;28;19919;-73
2022/03/01 06:32:04;;;;;;;;;;;-7.40;99.90;;;;;;5072335;28;20373;-73
2022/03/01 06:34:30;;;;;;;;;;;-7.40;99.90;;;;;;5071369;28;20389;-73
2022/03/01 06:36:56;;;;;;;;;;;-7.30;99.90;;;;;;5064747;28;19909;-74
2022/03/01 06:39:21;;;;;;;;;;;-7.10;99.90;;;;;;5071647;28;19912;-73
2022/03/01 06:41:47;;;;;;;;;;;-7.10;99.90;;;;;;5071846;28;19908;-73
2022/03/01 06:44:12;;;;;;;;;;;-7.00;99.90;;;;;;5071461;28;19954;-73
2022/03/01 06:46:38;;;;;;;;;;;-6.90;99.90;;;;;;5071964;28;19908;-73
2022/03/01 06:49:03;;;;;;;;;;;-6.80;99.90;;;;;;5071715;28;20448;-73
2022/03/01 06:51:29;;;;;;;;;;;-6.60;99.90;;;;;;5071694;28;20522;-73
2022/03/01 06:53:54;;;;;;;;;;;-6.50;99.90;;;;;;5070883;28;19912;-73
2022/03/01 06:56:20;;;;;;;;;;;-6.50;99.90;;;;;;5071488;28;19960;-73
2022/03/01 06:58:45;;;;;;;;;;;-6.50;99.90;;;;;;5072058;28;19909;-74
2022/03/01 07:01:11;;;;;;;;;;;-6.60;99.90;;;;;;5071747;28;20004;-74
2022/03/01 07:03:39;;;;;;;;;;;-6.60;99.90;;;;;;5071506;28;19908;-74
2022/03/01 07:06:04;;;;;;;;;;;-6.50;99.90;;;;;;5071506;28;19962;-74
2022/03/01 07:08:30;;;;;;;;;;;-6.40;99.90;;;;;;5066799;28;19908;-74
2022/03/01 07:10:56;;;;;;;;;;;-6.30;99.90;;;;;;5071304;28;20372;-74
2022/03/01 07:13:21;;;;;;;;;;;-6.20;99.90;;;;;;5071260;28;20007;-73
2022/03/01 07:15:47;;;;;;;;;;;-6.00;99.90;;;;;;5071460;28;19916;-73
2022/03/01 07:18:12;;;;;;;;;;;-5.80;99.90;;;;;;5071581;28;19915;-73
2022/03/01 07:20:38;;;;;;;;;;;-6.00;99.90;;;;;;5071426;28;19919;-73
2022/03/01 07:23:04;;;;;;;;;;;-6.00;99.90;;;;;;5071272;28;19914;-73
2022/03/01 07:25:30;;;;;;;;;;;-5.80;99.90;;;;;;5071251;28;19909;-74
2022/03/01 07:27:55;;;;;;;;;;;-5.60;99.90;;;;;;5064821;28;19916;-73
2022/03/01 07:30:24;;;;;;;;;;;-5.40;99.90;;;;;;5072660;28;19916;-73
2022/03/01 07:32:52;;;;;;;;;;;-5.20;99.90;;;;;;5074806;28;19909;-73
2022/03/01 07:35:21;;;;;;;;;;;-5.00;99.90;;;;;;5074732;28;19919;-73
2022/03/01 07:37:46;;;;;;;;;;;-4.80;99.90;;;;;;5074708;28;20504;-73
2022/03/01 07:40:14;;;;;;;;;;;-4.60;99.90;;;;;;5069035;28;19934;-73
2022/03/01 07:42:40;;;;;;;;;;;-4.40;99.90;;;;;;5075793;28;19908;-73
2022/03/01 07:45:06;;;;;;;;;;;-4.30;99.90;;;;;;5074195;28;19914;-73
2022/03/01 07:47:31;;;;;;;;;;;-4.20;99.90;;;;;;5074809;28;19908;-72
2022/03/01 07:49:57;;;;;;;;;;;-4.20;99.90;;;;;;5074890;28;20003;-73
2022/03/01 07:52:23;;;;;;;;;;;-4.00;99.90;;;;;;5075064;28;19909;-73
2022/03/01 07:54:49;;;;;;;;;;;-3.90;99.90;;;;;;5074659;28;19909;-73
2022/03/01 07:57:17;;;;;;;;;;;-3.70;99.90;;;;;;5074565;28;19908;-73
2022/03/01 07:59:43;;;;;;;;;;;-3.60;99.90;;;;;;5074748;28;20341;-73
2022/03/01 08:02:09;;;;;;;;;;;-3.40;99.90;;;;;;5074351;28;19916;-73
2022/03/01 08:04:34;;;;;;;;;;;-3.30;99.90;;;;;;5074154;28;19909;-73
2022/03/01 08:07:00;;;;;;;;;;;-3.10;99.90;;;;;;5074087;28;19936;-73
2022/03/01 08:09:26;;;;;;;;;;;-2.60;99.90;;;;;;5075552;28;20040;-73
2022/03/01 08:11:51;;;;;;;;;;;-2.40;99.90;;;;;;5077523;28;19923;-73
2022/03/01 08:14:17;;;;;;;;;;;-2.30;99.90;;;;;;5075170;28;19912;-73
2022/03/01 08:16:42;;;;;;;;;;;-2.00;99.90;;;;;;5074772;28;19924;-73
2022/03/01 08:19:08;;;;;;;;;;;-2.20;99.90;;;;;;5075689;28;19919;-73
2022/03/01 08:21:33;;;;;;;;;;;-1.90;99.90;;;;;;5076728;28;20526;-73
2022/03/01 08:23:59;;;;;;;;;;;-1.70;99.90;;;;;;5076107;28;20331;-73
2022/03/01 08:26:24;;;;;;;;;;;-1.50;99.90;;;;;;5074440;28;20407;-73
2022/03/01 08:28:50;;;;;;;;;;;0.40;98.90;;;;;;5074033;28;19908;-73
2022/03/01 08:31:16;;;;;;;;;;;2.70;92.70;;;;;;5074942;28;19966;-73
2022/03/01 08:33:41;;;;;;;;;;;4.10;87.80;;;;;;5074561;28;19909;-73
2022/03/01 08:36:08;;;;;;;;;;;5.60;79.00;;;;;;5074665;28;19908;-73
2022/03/01 08:38:33;;;;;;;;;;;6.30;76.10;;;;;;5074803;28;20318;-73
2022/03/01 08:40:59;;;;;;;;;;;6.70;71.10;;;;;;5070406;28;19912;-73
2022/03/01 08:43:25;;;;;;;;;;;6.30;68.80;;;;;;5073915;28;19931;-73
2022/03/01 08:45:50;;;;;;;;;;;6.60;66.70;;;;;;5074600;28;19908;-73
2022/03/01 08:48:16;;;;;;;;;;;7.80;68.50;;;;;;5074521;28;19912;-73
2022/03/01 08:50:42;;;;;;;;;;;7.50;65.00;;;;;;5074600;28;19935;-73
2022/03/01 08:53:07;;;;;;;;;;;6.80;63.60;;;;;;5073718;28;20380;-73
2022/03/01 08:55:33;;;;;;;;;;;7.80;65.50;;;;;;5074358;28;20007;-73
2022/03/01 08:57:59;;;;;;;;;;;8.50;64.50;;;;;;5072646;28;19908;-73
2022/03/01 09:00:25;;;;;;;;;;;8.60;62.80;;;;;;5074754;28;19916;-73
2022/03/01 09:02:51;;;;;;;;;;;9.40;59.40;;;;;;5069239;28;20286;-74
2022/03/01 09:05:17;;;;;;;;;;;9.10;57.90;;;;;;5079018;28;19908;-73
2022/03/01 09:07:43;;;;;;;;;;;9.50;59.90;;;;;;5074692;28;20115;-73
2022/03/01 09:10:09;;;;;;;;;;;9.30;59.90;;;;;;5075494;28;19913;-73
2022/03/01 09:12:34;;;;;;;;;;;8.40;57.60;;;;;;5073300;28;20122;-73
2022/03/01 09:15:00;;;;;;;;;;;9.50;59.80;;;;;;5073322;28;19908;-73
2022/03/01 09:17:25;;;;;;;;;;;10.50;55.30;;;;;;5073031;28;20014;-73
2022/03/01 09:19:51;;;;;;;;;;;10.90;53.90;;;;;;5073222;28;19919;-73
2022/03/01 09:22:17;;;;;;;;;;;10.50;55.30;;;;;;5073012;28;19912;-73
2022/03/01 09:24:42;;;;;;;;;;;11.50;52.50;;;;;;5072778;28;19958;-74
2022/03/01 09:27:08;;;;;;;;;;;10.20;50.30;;;;;;5072844;28;19916;-74
2022/03/01 09:29:33;;;;;;;;;;;11.20;51.90;;;;;;5072851;28;19958;-74
2022/03/01 09:31:59;;;;;;;;;;;12.00;49.20;;;;;;5069143;28;20226;-73
2022/03/01 09:34:25;;;;;;;;;;;11.90;50.00;;;;;;5073923;28;19908;-74
2022/03/01 09:36:51;;;;;;;;;;;12.50;49.90;;;;;;5069888;28;19912;-74
2022/03/01 09:39:16;;;;;;;;;;;13.20;48.90;;;;;;5080977;28;19930;-74
2022/03/01 09:41:42;;;;;;;;;;;13.30;47.50;;;;;;5072524;28;20345;-74
2022/03/01 09:44:08;;;;;;;;;;;14.00;46.30;;;;;;5072131;28;19909;-74
2022/03/01 09:46:34;;;;;;;;;;;14.30;46.00;;;;;;5072429;28;19927;-74
2022/03/01 09:49:00;;;;;;;;;;;14.30;43.60;;;;;;5072461;28;20086;-73
2022/03/01 09:51:26;;;;;;;;;;;14.00;45.20;;;;;;5072029;28;19963;-73
2022/03/01 09:53:52;;;;;;;;;;;14.40;43.20;;;;;;5071788;28;19912;-73
2022/03/01 09:56:18;;;;;;;;;;;15.00;42.30;;;;;;5072338;28;19954;-73
2022/03/01 09:58:44;;;;;;;;;;;14.40;42.40;;;;;;5072100;28;19909;-73
2022/03/01 10:01:10;;;;;;;;;;;14.00;43.20;;;;;;5072262;28;19916;-73
2022/03/01 10:03:36;;;;;;;;;;;14.70;42.20;;;;;;5072236;28;19915;-73
2022/03/01 10:06:21;;;;;;;;;;;14.10;41.30;;;;;;5072390;28;19912;-73
2022/03/01 10:08:54;;;;;;;;;;;14.10;43.80;;;;;;5071058;28;19981;-73
2022/03/01 10:11:20;;;;;;;;;;;15.30;43.40;;;;;;5072560;28;19916;-73
2022/03/01 10:13:45;;;;;;;;;;;14.20;38.50;;;;;;5073062;28;19915;-74
2022/03/01 10:16:17;;;;;;;;;;;14.40;42.40;;;;;;5072810;28;19955;-74
2022/03/01 10:18:48;;;;;;;;;;;15.40;38.80;;;;;;5072943;28;19909;-74
2022/03/01 10:21:14;;;;;;;;;;;16.30;40.70;;;;;;5072852;28;19909;-73
2022/03/01 10:24:07;;;;;;;;;;;15.30;39.90;;;;;;5073245;28;19909;-74
2022/03/01 10:26:33;;;;;;;;;;;15.40;39.00;;;;;;5064389;28;19913;-74
2022/03/01 10:28:59;;;;;;;;;;;16.20;38.60;;;;;;5072928;28;20385;-74
2022/03/01 10:31:27;;;;;;;;;;;15.20;39.30;;;;;;5071898;28;19912;-74
2022/03/01 10:33:52;;;;;;;;;;;16.60;38.10;;;;;;5065512;28;19909;-74
2022/03/01 10:36:22;;;;;;;;;;;17.70;38.00;;;;;;5064906;28;19912;-74
2022/03/01 10:38:54;;;;;;;;;;;15.40;36.70;;;;;;5071546;28;19932;-74
2022/03/01 10:41:23;;;;;;;;;;;17.20;38.30;;;;;;5072079;28;19944;-74
2022/03/01 10:43:53;;;;;;;;;;;16.40;34.40;;;;;;5071962;28;19938;-74
2022/03/01 10:46:19;;;;;;;;;;;15.60;35.60;;;;;;5072103;28;19915;-74
2022/03/01 10:48:44;;;;;;;;;;;16.60;37.40;;;;;;5072024;28;19916;-74
2022/03/01 10:51:10;;;;;;;;;;;15.10;35.20;;;;;;5071856;28;19966;-74
2022/03/01 10:53:39;;;;;;;;;;;14.10;36.00;;;;;;5071647;28;19915;-74
2022/03/01 10:56:06;;;;;;;;;;;15.40;35.30;;;;;;5071924;28;19962;-74
2022/03/01 10:58:31;;;;;;;;;;;16.20;35.10;;;;;;5072297;28;19919;-74
2022/03/01 11:00:57;;;;;;;;;;;16.30;35.80;;;;;;5072060;28;20593;-74
2022/03/01 11:03:24;;;;;;;;;;;14.30;36.70;;;;;;5071508;28;19908;-74
2022/03/01 11:05:52;;;;;;;;;;;15.80;37.10;;;;;;5077080;28;19908;-74
2022/03/01 11:08:18;;;;;;;;;;;17.00;34.60;;;;;;5078183;28;19919;-74
2022/03/01 11:10:44;;;;;;;;;;;17.40;34.20;;;;;;5075794;28;20361;-74
2022/03/01 11:13:10;;;;;;;;;;;17.10;33.60;;;;;;5075515;28;19978;-74
2022/03/01 11:15:52;;;;;;;;;;;15.30;34.50;;;;;;5075652;28;19920;-74
2022/03/01 11:18:27;;;;;;;;;;;16.00;34.20;;;;;;5072745;28;20003;-75
2022/03/01 11:20:53;;;;;;;;;;;17.60;33.20;;;;;;5078334;28;19971;-74
2022/03/01 11:23:23;;;;;;;;;;;17.50;31.70;;;;;;5075618;28;19913;-74
2022/03/01 11:25:49;;;;;;;;;;;16.40;35.30;;;;;;5075483;28;19908;-74
2022/03/01 11:28:16;;;;;;;;;;;17.10;32.20;;;;;;5073626;28;19923;-75
2022/03/01 11:30:51;;;;;;;;;;;16.20;31.80;;;;;;5071718;28;19920;-75
2022/03/01 11:33:26;;;;;;;;;;;16.70;34.70;;;;;;5075003;28;19909;-75
2022/03/01 11:35:55;;;;;;;;;;;17.00;34.00;;;;;;5075368;28;19955;-75
2022/03/01 11:38:24;;;;;;;;;;;16.20;31.90;;;;;;5075280;28;20338;-75
2022/03/01 11:40:55;;;;;;;;;;;16.10;32.50;;;;;;5074962;28;20418;-74
2022/03/01 11:43:26;;;;;;;;;;;16.00;32.20;;;;;;5074780;28;19908;-75
2022/03/01 11:45:56;;;;;;;;;;;16.30;32.60;;;;;;5075556;28;20366;-75
2022/03/01 11:48:24;;;;;;;;;;;16.90;31.20;;;;;;5068573;28;19919;-74
2022/03/01 11:51:03;;;;;;;;;;;15.60;33.80;;;;;;5069179;28;20286;-74
2022/03/01 11:53:33;;;;;;;;;;;16.80;31.80;;;;;;5070008;28;19915;-75
2022/03/01 11:55:59;;;;;;;;;;;12.80;33.50;;;;;;5074987;28;20388;-74
2022/03/01 11:58:25;;;;;;;;;;;10.10;37.40;;;;;;5074925;28;20285;-74
2022/03/01 12:00:51;;;;;;;;;;;8.30;43.60;;;;;;5074883;28;19923;-74
2022/03/01 12:03:19;;;;;;;;;;;7.60;43.20;;;;;;5074555;28;20416;-74
2022/03/01 12:05:48;;;;;;;;;;;6.90;45.90;;;;;;5074859;28;19909;-74
2022/03/01 12:08:14;;;;;;;;;;;7.00;46.30;;;;;;5072774;28;19915;-74
2022/03/01 12:10:53;;;;;;;;;;;7.10;46.70;;;;;;5074982;28;20369;-74
2022/03/01 12:13:19;;;;;;;;;;;7.10;45.90;;;;;;5074647;28;20431;-74
2022/03/01 12:15:54;;;;;;;;;;;6.80;46.50;;;;;;5074329;28;20249;-74
2022/03/01 12:18:25;;;;;;;;;;;6.60;44.40;;;;;;5074569;28;19912;-74
2022/03/01 12:20:51;;;;;;;;;;;6.70;47.00;;;;;;5074852;28;19908;-74
2022/03/01 12:23:26;;;;;;;;;;;6.50;46.80;;;;;;5074200;28;19962;-74
2022/03/01 12:25:52;;;;;;;;;;;6.70;47.10;;;;;;5074711;28;20288;-74
2022/03/01 12:28:20;;;;;;;;;;;6.60;47.20;;;;;;5074612;28;19919;-74
2022/03/01 12:30:45;;;;;;;;;;;6.50;43.50;;;;;;5073929;28;19913;-74
2022/03/01 12:33:15;;;;;;;;;;;6.30;42.50;;;;;;5074030;28;19953;-73
2022/03/01 12:35:41;;;;;;;;;;;6.40;45.00;;;;;;5074126;28;19972;-74
2022/03/01 12:38:09;;;;;;;;;;;6.50;45.50;;;;;;5069870;28;20066;-74
2022/03/01 12:40:34;;;;;;;;;;;6.30;43.30;;;;;;5077897;28;20377;-74
2022/03/01 12:43:10;;;;;;;;;;;6.50;46.40;;;;;;5074250;28;19927;-74
2022/03/01 12:45:39;;;;;;;;;;;6.30;44.90;;;;;;5073799;28;19909;-74
2022/03/01 12:48:07;;;;;;;;;;;6.10;44.40;;;;;;5073721;28;19909;-73
2022/03/01 12:50:33;;;;;;;;;;;6.50;46.80;;;;;;5072391;28;19913;-74
2022/03/01 12:52:59;;;;;;;;;;;6.20;47.10;;;;;;5073620;28;19914;-74
2022/03/01 12:55:25;;;;;;;;;;;6.00;46.70;;;;;;5073318;28;19909;-73
2022/03/01 12:57:51;;;;;;;;;;;5.90;48.70;;;;;;5072785;28;19944;-73
2022/03/01 13:00:17;;;;;;;;;;;5.70;47.20;;;;;;5073855;28;19908;-74
2022/03/01 13:02:56;;;;;;;;;;;6.10;48.40;;;;;;5073520;28;19909;-74
2022/03/01 13:05:25;;;;;;;;;;;6.30;49.20;;;;;;5073991;28;19913;-73
2022/03/01 13:07:51;;;;;;;;;;;6.10;47.20;;;;;;5071468;28;20482;-73
2022/03/01 13:10:25;;;;;;;;;;;6.50;48.90;;;;;;5072040;28;19913;-73
2022/03/01 13:12:51;;;;;;;;;;;6.60;48.50;;;;;;5073405;28;20293;-73
2022/03/01 13:15:20;;;;;;;;;;;6.50;46.60;;;;;;5072933;28;19915;-73
2022/03/01 13:17:56;;;;;;;;;;;6.70;47.90;;;;;;5073171;28;20381;-73
2022/03/01 13:20:22;;;;;;;;;;;6.80;47.90;;;;;;5073394;28;19920;-73
2022/03/01 13:23:01;;;;;;;;;;;7.00;48.10;;;;;;5073011;28;19909;-73
2022/03/01 13:25:27;;;;;;;;;;;7.10;48.50;;;;;;5072859;28;19912;-73
2022/03/01 13:27:53;;;;;;;;;;;6.90;46.70;;;;;;5072347;28;20449;-73
2022/03/01 13:30:23;;;;;;;;;;;6.70;48.20;;;;;;5072933;28;19999;-73
2022/03/01 13:32:50;;;;;;;;;;;6.80;46.80;;;;;;5073003;28;20004;-73
2022/03/01 13:35:16;;;;;;;;;;;6.70;46.70;;;;;;5068172;28;20037;-73
2022/03/01 13:37:42;;;;;;;;;;;6.40;46.40;;;;;;5069416;28;21074;-73
2022/03/01 13:40:08;;;;;;;;;;;6.40;51.00;;;;;;5071848;28;19916;-73
2022/03/01 13:42:34;;;;;;;;;;;6.50;50.10;;;;;;5073118;28;19909;-74
2022/03/01 13:45:01;;;;;;;;;;;6.70;50.40;;;;;;5072753;28;19908;-74
2022/03/01 13:47:28;;;;;;;;;;;6.80;51.50;;;;;;5071647;28;19912;-72
2022/03/01 13:49:55;;;;;;;;;;;6.80;49.60;;;;;;5072983;28;19928;-71
2022/03/01 13:52:22;;;;;;;;;;;6.90;47.80;;;;;;5072453;28;19962;-72
2022/03/01 13:54:49;;;;;;;;;;;6.90;45.80;;;;;;5072457;28;19913;-73
2022/03/01 13:57:22;;;;;;;;;;;7.10;47.30;;;;;;5072547;28;19913;-72
2022/03/01 14:00:05;;;;;;;;;;;6.90;45.50;;;;;;5072544;28;19948;-72
2022/03/01 14:02:31;;;;;;;;;;;6.90;44.20;;;;;;5072341;28;19955;-73
2022/03/01 14:05:01;;;;;;;;;;;6.90;45.50;;;;;;5072335;28;19912;-74
2022/03/01 14:07:26;;;;;;;;;;;7.00;47.10;;;;;;5072578;28;19915;-74
2022/03/01 14:09:52;;;;;;;;;;;7.30;46.40;;;;;;5071178;28;19920;-74
2022/03/01 14:12:18;;;;;;;;;;;7.20;43.20;;;;;;5072731;28;20373;-74
2022/03/01 14:14:45;;;;;;;;;;;6.90;42.50;;;;;;5072303;28;19974;-74